createdAt,value
2022-12-06T00:01:29.347Z,11.65
2022-12-06T00:04:32.290Z,11.50
2022-12-06T00:07:36.623Z,11.50
2022-12-06T00:10:40.755Z,10.33
2022-12-06T00:13:43.842Z,11.77
2022-12-06T00:16:47.565Z,12.00
2022-12-06T00:19:50.366Z,12.15
2022-12-06T00:22:53.307Z,10.80
2022-12-06T00:25:55.888Z,11.73
2022-12-06T00:29:00.709Z,11.10
2022-12-06T00:32:03.471Z,11.95
2022-12-06T00:35:06.786Z,10.80
2022-12-06T00:38:09.392Z,11.32
2022-12-06T00:41:14.470Z,11.57
2022-12-06T00:44:17.381Z,11.77
2022-12-06T00:47:20.257Z,6.10
2022-12-06T00:50:23.681Z,9.05
2022-12-06T00:53:28.443Z,8.23
2022-12-06T00:56:32.984Z,9.60
2022-12-06T00:59:35.844Z,5.97
2022-12-06T01:02:38.452Z,8.75
2022-12-06T01:05:43.583Z,10.95
2022-12-06T01:08:46.611Z,8.85
2022-12-06T01:11:49.712Z,9.60
2022-12-06T01:14:52.286Z,8.73
2022-12-06T01:17:55.078Z,12.13
2022-12-06T01:20:57.761Z,15.70
2022-12-06T01:24:02.206Z,9.57
2022-12-06T01:27:05.183Z,8.17
2022-12-06T01:30:08.480Z,8.60
2022-12-06T01:33:11.017Z,12.82
2022-12-06T01:36:22.679Z,11.98
2022-12-06T01:39:25.382Z,11.05
2022-12-06T01:42:28.414Z,10.53
2022-12-06T01:45:32.490Z,12.20
2022-12-06T01:48:36.136Z,11.65
2022-12-06T01:51:44.101Z,7.65
2022-12-06T01:54:47.197Z,8.55
2022-12-06T01:57:53.679Z,8.00
2022-12-06T02:00:56.746Z,5.15
2022-12-06T02:04:02.078Z,6.30
2022-12-06T02:07:06.404Z,7.45
2022-12-06T02:10:10.253Z,5.85
2022-12-06T02:13:13.499Z,5.23
2022-12-06T02:16:16.498Z,5.70
2022-12-06T02:19:24.762Z,6.32
2022-12-06T02:22:54.329Z,6.15
2022-12-06T02:26:03.334Z,3.72
2022-12-06T02:29:25.727Z,3.47
2022-12-06T02:32:42.002Z,6.55
2022-12-06T02:36:14.502Z,4.82
2022-12-06T02:39:34.854Z,6.60
2022-12-06T02:43:11.448Z,7.97
2022-12-06T02:46:16.285Z,8.73
2022-12-06T02:49:22.932Z,9.50
2022-12-06T02:52:28.425Z,11.90
2022-12-06T02:55:33.401Z,7.60
2022-12-06T02:58:37.623Z,6.78
2022-12-06T03:01:46.231Z,7.63
2022-12-06T03:05:03.937Z,7.93
2022-12-06T03:08:17.210Z,6.28
2022-12-06T03:11:19.973Z,7.20
2022-12-06T03:14:30.065Z,7.82
2022-12-06T03:17:50.018Z,3.27
2022-12-06T03:20:59.354Z,7.25
2022-12-06T03:24:05.323Z,3.95
2022-12-06T03:27:16.105Z,7.10
2022-12-06T03:30:19.166Z,5.47
2022-12-06T03:33:26.789Z,5.80
2022-12-06T03:36:31.674Z,6.78
2022-12-06T03:39:57.235Z,6.97
2022-12-06T03:43:00.617Z,8.10
2022-12-06T03:46:09.879Z,10.30
2022-12-06T03:49:17.999Z,8.27
2022-12-06T03:52:24.240Z,7.25
2022-12-06T03:55:27.005Z,6.45
2022-12-06T03:58:29.874Z,6.95
2022-12-06T04:01:34.025Z,9.27
2022-12-06T04:04:38.186Z,11.37
2022-12-06T04:07:40.902Z,9.07
2022-12-06T04:10:45.584Z,8.45
2022-12-06T04:13:48.148Z,3.65
2022-12-06T04:17:09.880Z,2.30
2022-12-06T04:20:12.639Z,2.10
2022-12-06T04:23:17.149Z,2.22
2022-12-06T04:26:22.211Z,1.55
2022-12-06T04:29:44.527Z,2.08
2022-12-06T04:33:05.684Z,2.30
2022-12-06T04:36:27.675Z,2.50
2022-12-06T04:39:30.663Z,2.92
2022-12-06T04:42:52.059Z,2.40
2022-12-06T04:45:55.147Z,2.85
2022-12-06T04:48:58.255Z,2.35
2022-12-06T04:52:01.184Z,2.73
2022-12-06T04:55:05.511Z,2.90
2022-12-06T04:58:08.025Z,2.97
2022-12-06T05:01:11.185Z,4.20
2022-12-06T05:04:13.966Z,2.30
2022-12-06T05:07:17.016Z,2.10
2022-12-06T05:10:19.830Z,1.90
2022-12-06T05:13:23.920Z,2.10
2022-12-06T05:16:27.326Z,2.00
2022-12-06T05:19:30.260Z,2.33
2022-12-06T05:22:33.696Z,2.30
2022-12-06T05:25:36.637Z,2.30
2022-12-06T05:28:39.804Z,2.25
2022-12-06T05:31:44.087Z,2.10
2022-12-06T05:34:47.506Z,2.50
2022-12-06T05:37:50.439Z,2.10
2022-12-06T05:40:53.036Z,3.05
2022-12-06T05:43:55.948Z,2.55
2022-12-06T05:46:58.599Z,4.28
2022-12-06T05:50:01.659Z,4.25
2022-12-06T05:53:04.402Z,5.93
2022-12-06T05:56:10.776Z,4.60
2022-12-06T05:59:13.387Z,5.53
2022-12-06T06:02:16.300Z,6.85
2022-12-06T06:05:19.329Z,6.45
2022-12-06T06:08:22.075Z,8.73
2022-12-06T06:11:25.111Z,7.18
2022-12-06T06:14:27.881Z,3.90
2022-12-06T06:17:32.094Z,4.10
2022-12-06T06:20:35.004Z,3.95
2022-12-06T06:23:37.961Z,4.57
2022-12-06T06:26:40.658Z,7.55
2022-12-06T06:29:45.587Z,4.22
2022-12-06T06:32:48.287Z,4.25
2022-12-06T06:35:51.201Z,4.50
2022-12-06T06:38:53.715Z,3.90
2022-12-06T06:41:56.580Z,4.12
2022-12-06T06:44:59.134Z,7.47
2022-12-06T06:48:03.619Z,4.80
2022-12-06T06:51:11.732Z,4.90
2022-12-06T06:54:15.822Z,10.07
2022-12-06T06:57:18.818Z,9.23
2022-12-06T07:00:23.184Z,6.55
2022-12-06T07:03:27.706Z,5.10
2022-12-06T07:06:30.683Z,6.00
2022-12-06T07:09:33.913Z,4.00
2022-12-06T07:12:36.761Z,4.50
2022-12-06T07:15:39.292Z,3.10
2022-12-06T07:18:43.261Z,3.65
2022-12-06T07:21:45.811Z,3.42
2022-12-06T07:24:52.379Z,3.33
2022-12-06T07:27:55.237Z,2.62
2022-12-06T07:30:58.297Z,3.00
2022-12-06T07:34:02.441Z,3.35
2022-12-06T07:37:06.637Z,3.17
2022-12-06T07:40:10.052Z,3.70
2022-12-06T07:43:31.481Z,3.67
2022-12-06T07:46:34.168Z,4.43
2022-12-06T07:49:37.233Z,4.32
2022-12-06T07:52:41.248Z,4.62
2022-12-06T07:55:44.167Z,4.43
2022-12-06T07:58:46.917Z,5.18
2022-12-06T08:01:51.619Z,6.05
2022-12-06T08:04:55.490Z,6.43
2022-12-06T08:07:58.163Z,5.72
2022-12-06T08:11:06.570Z,4.53
2022-12-06T08:14:10.374Z,4.82
2022-12-06T08:17:13.357Z,4.50
2022-12-06T08:20:16.152Z,4.68
2022-12-06T08:23:19.630Z,4.20
2022-12-06T08:26:23.039Z,4.30
2022-12-06T08:29:27.705Z,3.67
2022-12-06T08:32:30.334Z,3.58
2022-12-06T08:35:37.665Z,3.67
2022-12-06T08:38:41.052Z,4.20
2022-12-06T08:42:10.040Z,2.90
2022-12-06T08:45:12.805Z,4.30
2022-12-06T08:48:15.841Z,3.30
2022-12-06T08:51:18.689Z,2.60
2022-12-06T08:54:24.505Z,2.90
2022-12-06T08:57:27.081Z,3.27
2022-12-06T09:00:31.656Z,2.47
2022-12-06T09:03:34.311Z,2.47
2022-12-06T09:06:42.116Z,2.45
2022-12-06T09:09:46.343Z,2.20
2022-12-06T09:12:49.191Z,2.03
2022-12-06T09:15:52.510Z,1.92
2022-12-06T09:18:55.476Z,1.37
2022-12-06T09:21:58.103Z,2.45
2022-12-06T09:25:02.093Z,1.60
2022-12-06T09:28:04.987Z,1.10
2022-12-06T09:31:09.599Z,1.40
2022-12-06T09:34:13.150Z,1.10
2022-12-06T09:37:17.484Z,1.33
2022-12-06T09:40:29.093Z,1.60
2022-12-06T09:44:03.036Z,1.47
2022-12-06T09:47:30.449Z,1.50
2022-12-06T09:51:10.465Z,1.30
2022-12-06T09:54:35.221Z,1.40
2022-12-06T09:57:41.271Z,1.15
2022-12-06T10:01:23.324Z,1.23
2022-12-06T10:05:03.622Z,1.67
2022-12-06T10:08:15.463Z,1.73
2022-12-06T10:11:48.838Z,1.45
2022-12-06T10:15:21.901Z,1.10
2022-12-06T10:18:34.508Z,1.47
2022-12-06T10:21:43.276Z,1.10
2022-12-06T10:24:49.086Z,1.10
2022-12-06T10:28:10.980Z,1.37
2022-12-06T10:31:39.982Z,1.00
2022-12-06T10:35:11.002Z,0.60
2022-12-06T10:38:31.937Z,0.80
2022-12-06T10:41:42.264Z,1.02
2022-12-06T10:44:51.499Z,0.77
2022-12-06T10:47:59.219Z,1.30
2022-12-06T10:51:09.513Z,1.30
2022-12-06T10:54:37.762Z,1.40
2022-12-06T10:57:44.866Z,1.48
2022-12-06T11:00:53.010Z,1.60
2022-12-06T11:04:04.510Z,1.65
2022-12-06T11:07:22.222Z,1.50
2022-12-06T11:10:29.164Z,1.95
2022-12-06T11:13:38.035Z,1.30
2022-12-06T11:16:45.222Z,1.95
2022-12-06T11:19:55.528Z,2.78
2022-12-06T11:23:24.339Z,1.47
2022-12-06T11:26:42.362Z,1.30
2022-12-06T11:29:50.760Z,1.70
2022-12-06T11:32:54.101Z,1.33
2022-12-06T11:36:03.402Z,1.33
2022-12-06T11:39:06.286Z,3.47
2022-12-06T11:42:13.179Z,2.30
2022-12-06T11:45:28.532Z,1.25
2022-12-06T11:48:34.637Z,1.60
2022-12-06T11:51:37.270Z,1.40
2022-12-06T11:55:00.962Z,1.70
2022-12-06T11:58:22.629Z,2.28
2022-12-06T12:01:39.791Z,1.33
2022-12-06T12:04:45.052Z,1.20
2022-12-06T12:07:54.176Z,2.20
2022-12-06T12:11:02.595Z,1.13
2022-12-06T12:14:15.796Z,1.42
2022-12-06T12:17:23.195Z,2.20
2022-12-06T12:20:39.908Z,1.50
2022-12-06T12:23:46.785Z,1.17
2022-12-06T12:26:49.639Z,1.70
2022-12-06T12:30:17.511Z,1.12
2022-12-06T12:33:23.032Z,2.47
2022-12-06T12:36:28.634Z,1.45
2022-12-06T12:39:34.191Z,1.45
2022-12-06T12:42:40.257Z,1.53
2022-12-06T12:46:07.436Z,1.45
2022-12-06T12:49:23.408Z,1.48
2022-12-06T12:52:53.238Z,1.58
2022-12-06T12:56:13.711Z,2.17
2022-12-06T12:59:20.138Z,1.70
2022-12-06T13:02:28.990Z,1.90
2022-12-06T13:05:44.954Z,1.50
2022-12-06T13:08:50.297Z,2.40
2022-12-06T13:12:01.932Z,2.08
2022-12-06T13:15:23.330Z,1.77
2022-12-06T13:18:35.414Z,1.60
2022-12-06T13:21:45.587Z,1.60
2022-12-06T13:24:58.207Z,1.60
2022-12-06T13:28:05.792Z,2.05
2022-12-06T13:31:17.331Z,1.33
2022-12-06T13:34:46.673Z,2.03
2022-12-06T13:37:53.580Z,1.70
2022-12-06T13:41:01.570Z,2.00
2022-12-06T13:44:04.240Z,2.08
2022-12-06T13:47:29.149Z,1.60
2022-12-06T13:50:43.532Z,2.00
2022-12-06T13:54:05.290Z,2.28
2022-12-06T13:57:22.552Z,2.20
2022-12-06T14:00:31.520Z,3.30
2022-12-06T14:03:34.485Z,2.63
2022-12-06T14:06:43.046Z,2.30
2022-12-06T14:09:52.465Z,2.42
2022-12-06T14:13:04.950Z,2.50
2022-12-06T14:16:10.536Z,2.92
2022-12-06T14:19:21.397Z,3.57
2022-12-06T14:22:25.659Z,2.78
2022-12-06T14:25:30.607Z,2.30
2022-12-06T14:28:36.044Z,3.00
2022-12-06T14:31:40.107Z,2.62
2022-12-06T14:34:43.133Z,2.70
2022-12-06T14:37:54.125Z,2.55
2022-12-06T14:41:18.717Z,3.17
2022-12-06T14:44:27.086Z,3.47
2022-12-06T14:47:31.170Z,1.10
2022-12-06T14:50:42.899Z,3.93
2022-12-06T14:53:46.058Z,3.50
2022-12-06T14:56:48.903Z,3.12
2022-12-06T15:00:25.959Z,3.55
2022-12-06T15:03:33.465Z,4.47
2022-12-06T15:06:38.141Z,3.53
2022-12-06T15:09:45.875Z,3.87
2022-12-06T15:12:57.247Z,3.35
2022-12-06T15:16:14.147Z,3.70
2022-12-06T15:19:17.982Z,3.75
2022-12-06T15:22:25.206Z,4.03
2022-12-06T15:25:28.844Z,5.35
2022-12-06T15:28:32.111Z,6.93
2022-12-06T15:31:38.511Z,10.77
2022-12-06T15:34:42.322Z,15.40
2022-12-06T15:37:50.381Z,14.33
2022-12-06T15:40:55.995Z,7.50
2022-12-06T15:43:59.050Z,8.52
2022-12-06T15:47:01.995Z,7.32
2022-12-06T15:50:05.533Z,8.68
2022-12-06T15:53:13.785Z,6.37
2022-12-06T15:56:19.553Z,6.43
2022-12-06T15:59:22.154Z,5.45
2022-12-06T16:02:26.329Z,4.30
2022-12-06T16:05:31.526Z,4.80
2022-12-06T16:08:34.267Z,4.23
2022-12-06T16:11:37.458Z,4.90
2022-12-06T16:14:40.087Z,6.85
2022-12-06T16:17:43.216Z,5.90
2022-12-06T16:20:46.947Z,5.15
2022-12-06T16:24:17.192Z,5.20
2022-12-06T16:27:21.319Z,4.20
2022-12-06T16:30:35.331Z,4.25
2022-12-06T16:33:40.338Z,4.20
2022-12-06T16:37:13.385Z,4.53
2022-12-06T16:40:20.760Z,5.40
2022-12-06T16:43:23.851Z,7.85
2022-12-06T16:46:33.751Z,9.73
2022-12-06T16:49:48.707Z,12.05
2022-12-06T16:52:52.512Z,14.82
2022-12-06T16:55:55.695Z,16.70
2022-12-06T16:58:59.560Z,16.92
2022-12-06T17:02:07.262Z,13.50
2022-12-06T17:05:25.443Z,14.50
2022-12-06T17:08:29.252Z,10.55
2022-12-06T17:11:57.753Z,8.97
2022-12-06T17:15:02.133Z,6.95
2022-12-06T17:18:08.546Z,6.70
2022-12-06T17:21:16.966Z,7.28
2022-12-06T17:24:22.302Z,7.72
2022-12-06T17:27:26.257Z,9.73
2022-12-06T17:30:29.403Z,18.10
2022-12-06T17:33:36.800Z,15.70
2022-12-06T17:36:41.242Z,15.38
2022-12-06T17:39:44.974Z,15.40
2022-12-06T17:43:00.187Z,21.27
2022-12-06T17:46:09.228Z,20.58
2022-12-06T17:49:20.198Z,22.35
2022-12-06T17:52:25.398Z,22.15
2022-12-06T17:55:29.051Z,23.65
2022-12-06T17:58:33.028Z,23.97
2022-12-06T18:02:06.227Z,19.60
2022-12-06T18:05:02.254Z,17.52
2022-12-06T18:08:05.619Z,20.80
2022-12-06T18:11:09.206Z,20.50
2022-12-06T18:14:13.350Z,24.00
2022-12-06T18:17:17.636Z,26.17
2022-12-06T18:20:20.931Z,23.92
2022-12-06T18:23:24.736Z,23.17
2022-12-06T18:26:31.138Z,26.33
2022-12-06T18:29:39.208Z,25.67
2022-12-06T18:32:42.949Z,25.70
2022-12-06T18:35:48.054Z,27.50
2022-12-06T18:38:51.605Z,26.85
2022-12-06T18:41:56.202Z,26.30
2022-12-06T18:44:59.904Z,29.70
2022-12-06T18:48:04.356Z,28.58
2022-12-06T18:51:12.226Z,33.47
2022-12-06T18:54:17.410Z,27.95
2022-12-06T18:57:21.133Z,31.42
2022-12-06T19:00:25.759Z,38.73
2022-12-06T19:03:31.297Z,34.83
2022-12-06T19:06:38.809Z,27.90
2022-12-06T19:09:42.256Z,26.62
2022-12-06T19:12:48.162Z,26.62
2022-12-06T19:15:53.867Z,22.17
2022-12-06T19:19:00.698Z,19.70
2022-12-06T19:22:05.013Z,23.75
2022-12-06T19:25:13.603Z,22.65
2022-12-06T19:28:21.378Z,22.65
2022-12-06T19:31:29.988Z,19.23
2022-12-06T19:34:35.461Z,11.45
2022-12-06T19:37:39.588Z,18.00
2022-12-06T19:40:44.118Z,19.98
2022-12-06T19:44:06.824Z,20.70
2022-12-06T19:47:10.988Z,18.90
2022-12-06T19:50:24.222Z,17.95
2022-12-06T19:53:28.078Z,18.92
2022-12-06T19:56:36.304Z,19.20
2022-12-06T19:59:40.221Z,21.45
2022-12-06T20:02:48.361Z,17.40
2022-12-06T20:06:05.235Z,17.87
2022-12-06T20:09:08.911Z,15.60
2022-12-06T20:12:14.003Z,16.83
2022-12-06T20:15:17.942Z,13.80
2022-12-06T20:18:21.981Z,14.00
2022-12-06T20:21:27.024Z,15.20
2022-12-06T20:24:33.407Z,14.57
2022-12-06T20:27:52.520Z,14.65
2022-12-06T20:30:58.453Z,15.27
2022-12-06T20:34:07.870Z,13.33
2022-12-06T20:37:14.356Z,13.38
2022-12-06T20:40:18.107Z,13.13
2022-12-06T20:43:33.182Z,16.90
2022-12-06T20:46:37.815Z,14.73
2022-12-06T20:49:43.020Z,15.37
2022-12-06T20:52:46.912Z,15.68
2022-12-06T20:55:51.472Z,15.57
2022-12-06T20:58:58.647Z,14.10
2022-12-06T21:02:03.279Z,12.52
2022-12-06T21:05:07.542Z,12.80
2022-12-06T21:08:12.771Z,12.75
2022-12-06T21:11:23.385Z,11.75
2022-12-06T21:14:26.959Z,14.98
2022-12-06T21:17:33.294Z,15.07
2022-12-06T21:20:40.515Z,16.90
2022-12-06T21:23:43.267Z,21.40
2022-12-06T21:26:47.082Z,33.75
2022-12-06T21:29:51.262Z,22.50
2022-12-06T21:32:54.262Z,41.42
2022-12-06T21:36:02.566Z,34.47
2022-12-06T21:39:06.312Z,48.95
2022-12-06T21:42:11.182Z,66.65
2022-12-06T21:45:14.236Z,32.10
2022-12-06T21:48:16.838Z,24.35
2022-12-06T21:51:20.635Z,16.50
2022-12-06T21:54:23.299Z,17.05
2022-12-06T21:57:26.361Z,21.75
2022-12-06T22:00:29.032Z,24.73
2022-12-06T22:03:32.172Z,20.30
2022-12-06T22:06:37.283Z,18.93
2022-12-06T22:09:40.437Z,16.25
2022-12-06T22:12:43.283Z,15.75
2022-12-06T22:15:46.256Z,13.88
2022-12-06T22:18:51.902Z,13.40
2022-12-06T22:21:56.715Z,11.67
2022-12-06T22:24:59.699Z,12.25
2022-12-06T22:28:02.858Z,12.45
2022-12-06T22:31:15.269Z,13.23
2022-12-06T22:34:18.322Z,12.70
2022-12-06T22:37:25.332Z,13.27
2022-12-06T22:40:31.355Z,12.23
2022-12-06T22:43:34.592Z,12.85
2022-12-06T22:46:37.923Z,13.07
2022-12-06T22:49:40.617Z,13.15
2022-12-06T22:52:43.539Z,14.07
2022-12-06T22:55:47.515Z,14.23
2022-12-06T22:58:55.505Z,14.45
2022-12-06T23:01:58.315Z,13.95
2022-12-06T23:05:01.400Z,13.40
2022-12-06T23:08:05.338Z,12.70
2022-12-06T23:11:31.111Z,13.60
2022-12-06T23:14:33.818Z,13.27
2022-12-06T23:17:39.288Z,13.48
2022-12-06T23:20:42.010Z,13.95
2022-12-06T23:23:47.259Z,15.20
2022-12-06T23:26:56.131Z,13.98
2022-12-06T23:30:01.086Z,13.85
2022-12-06T23:33:05.053Z,15.35
2022-12-06T23:36:17.729Z,14.40
2022-12-06T23:39:20.348Z,15.10
2022-12-06T23:42:23.322Z,14.65
2022-12-06T23:45:25.892Z,15.13
2022-12-06T23:48:31.040Z,13.88
2022-12-06T23:51:38.623Z,14.90
2022-12-06T23:54:41.710Z,14.07
2022-12-06T23:57:44.393Z,13.60
